Main page
METAR-TAF:

METAR-TAF

Airports :

London-Southend, England

London Southend Airport

latitude: 51-34N, longitude: 000-42E, elevation: 15 m

Current weather observation

The report was made 18 minutes ago, at 07:50 UTC
Wind 5 kt from the East/Northeast
Temperature 3°C
Humidity 81%
Pressure 1025 hPa
Visibility 10 km or more
no clouds below 1500 m and no cumulonimbus

METAR: EGMC 040750Z 07005KT CAVOK 03/M00 Q1025

Time: 08:08 (08:08 UTC)

Forecast

The report was made 3 hours and 8 minutes ago, at 05:00 UTC
Forecast valid from 04 at 06 UTC to 04 at 15 UTC
Wind 8 kt from the East
Visibility 10 km or more
no clouds below 1500 m and no cumulonimbus

TAF: EGMC 040500Z 0406/0415 09008KT CAVOK

Weather observations and forecasts of more than 4000 airports (METAR and TAF reports).

The available stations are represented by yellow and red dots on the map.

Hover mouse over dot to see the name of the station.

Then click to see weather observations and forecasts.

To change the map : click on the green buttons with a black cross to zoom in, on the green button with a dash to zoom out, or on the green arrows for adjacent maps.


METAR-TAF: